METAR Data
IDs: Format: Raw Decoded Include TAF

Data at: 1822 UTC 26 Oct 2021

K2R9 261815Z AUTO 15015KT 10SM SCT025 BKN034 30/23 A2984 RMK AO2 T02980229
K2R9 261755Z AUTO 15014G20KT 10SM BKN025 OVC034 30/23 A2984 RMK AO2 T02950229 10300 20245
K2R9 261735Z AUTO 17010G17KT 10SM BKN023 OVC033 29/23 A2986 RMK AO2 T02920230
K2R9 261715Z AUTO 14012G18KT 10SM BKN021 OVC027 29/23 A2986 RMK AO2 T02910234
K2R9 261655Z AUTO 15012G17KT 10SM BKN019 OVC027 28/23 A2988 RMK AO2 T02810233
K2R9 261635Z AUTO 15014G17KT 10SM BKN017 OVC025 28/23 A2988 RMK AO2 T02840234
K2R9 261615Z AUTO 16012KT 10SM BKN016 BKN022 OVC027 28/24 A2988 RMK AO2 T02810236
K2R9 261555Z AUTO 15011KT 10SM OVC016 27/24 A2989 RMK AO2 T02740236
K2R9 261535Z AUTO 15013G18KT 10SM BKN011 OVC019 28/24 A2990 RMK AO2 T02750239
K2R9 261515Z AUTO 13011G17KT 10SM OVC009 27/24 A2990 RMK AO2 T02670240
K2R9 261455Z AUTO 13007KT 10SM OVC007 26/24 A2991 RMK AO2 T02580238
K2R9 261435Z AUTO 13007KT 10SM OVC007 26/24 A2991 RMK AO2 T02560238
K2R9 261415Z AUTO 14008KT 10SM OVC007 25/24 A2991 RMK AO2 T02530237
K2R9 261355Z AUTO 13007KT 10SM OVC007 25/24 A2990 RMK AO2 T02500237
K2R9 261335Z AUTO 13006KT 10SM OVC007 25/24 A2990 RMK AO2 T02480236
K2R9 261315Z AUTO 10005KT 10SM BKN009 OVC014 25/24 A2990 RMK AO2 T02460235
K2R9 261255Z AUTO 12005KT 10SM SCT009 OVC017 25/23 A2990 RMK AO2 T02460234
K2R9 261235Z AUTO 15004KT 10SM SCT007 SCT011 OVC017 25/23 A2990 RMK AO2 T02460234
K2R9 261215Z AUTO 14006KT 10SM BKN009 OVC013 25/23 A2990 RMK AO2 T02460234
K2R9 261155Z AUTO 13005KT 10SM OVC013 25/23 A2990 RMK AO2 T02450234 10247 20236
K2R9 261135Z AUTO 12005KT 10SM OVC011 25/23 A2990 RMK AO2 T02450233
K2R9 261115Z AUTO 15005KT 10SM OVC009 25/23 A2991 RMK AO2 T02460234
K2R9 261055Z AUTO 15005KT 10SM BKN009 OVC015 25/23 A2991 RMK AO2 T02450233
K2R9 261035Z AUTO 14006KT 10SM BKN009 BKN012 OVC017 24/23 A2990 RMK AO2 T02440233
K2R9 261015Z AUTO 15004KT 10SM BKN009 OVC017 24/23 A2990 RMK AO2 T02450233
K2R9 260955Z AUTO 16005KT 10SM SCT011 OVC017 25/23 A2990 RMK AO2 T02450232
K2R9 260935Z AUTO 16005KT 10SM OVC013 25/23 A2990 RMK AO2 T02460232
K2R9 260915Z AUTO 18005KT 10SM BKN010 OVC013 25/23 A2990 RMK AO2 T02470233
K2R9 260855Z AUTO 16006KT 10SM BKN008 OVC013 25/23 A2990 RMK AO2 T02460234
K2R9 260835Z AUTO 17006KT 10SM OVC006 25/24 A2991 RMK AO2 T02470236
K2R9 260815Z AUTO 16007KT 10SM OVC006 25/24 A2991 RMK AO2 T02470236
K2R9 260755Z AUTO 16005KT 10SM OVC006 25/24 A2992 RMK AO2 T02470236
K2R9 260735Z AUTO 14007KT 10SM OVC006 25/24 A2993 RMK AO2 T02470236
K2R9 260715Z AUTO 16011KT 10SM OVC006 25/24 A2993 RMK AO2 T02470236
K2R9 260655Z AUTO 15007KT 10SM OVC006 25/24 A2993 RMK AO2 T02460236
K2R9 260635Z AUTO 15009KT 10SM OVC004 24/24 A2993 RMK AO2 T02430235
K2R9 260615Z AUTO 10SM OVC004 24/23 A2994 RMK AO2 T02400233
K2R9 260555Z AUTO 14004KT 7SM BKN004 23/23 A2994 RMK AO2 T02340227 10280 20231
K2R9 260535Z AUTO 14005KT 10SM CLR 23/23 A2995 RMK AO2 T02330225
K2R9 260515Z AUTO 13005KT 10SM CLR 23/22 A2995 RMK AO2 T02330224
K2R9 260455Z AUTO 12006KT 10SM CLR 23/22 A2995 RMK AO2 T02330223
K2R9 260435Z AUTO 13006KT 7SM BR CLR 23/22 A2995 RMK AO2 T02330222
K2R9 260415Z AUTO 12006KT 10SM CLR 23/22 A2995 RMK AO2 T02340221
K2R9 260355Z AUTO 12006KT 7SM CLR 24/22 A2995 RMK AO2 T02370222
K2R9 260335Z AUTO 13007KT 10SM CLR 24/22 A2996 RMK AO2 T02370221
K2R9 260315Z AUTO 12006KT 10SM CLR 24/22 A2995 RMK AO2 T02390220
K2R9 260255Z AUTO 13005KT 10SM CLR 24/22 A2996 RMK AO2 T02430220
K2R9 260235Z AUTO 13006KT 10SM CLR 24/22 A2995 RMK AO2 T02430220
K2R9 260215Z AUTO 12005KT 10SM CLR 25/22 A2995 RMK AO2 T02480220
K2R9 260155Z AUTO 14006KT 10SM CLR 25/22 A2995 RMK AO2 T02520220
K2R9 260135Z AUTO 15008KT 10SM CLR 26/22 A2995 RMK AO2 T02580221
K2R9 260115Z AUTO 15008KT 10SM CLR 26/22 A2994 RMK AO2 T02600221
K2R9 260055Z AUTO 14007KT 10SM CLR 26/22 A2994 RMK AO2 T02650222
K2R9 260035Z AUTO 15005KT 10SM CLR 27/22 A2993 RMK AO2 T02660220
K2R9 260015Z AUTO 13004KT 10SM CLR 28/22 A2992 RMK AO2 T02760219
K2R9 252355Z AUTO 13005KT 10SM CLR 28/22 A2991 RMK AO2 T02830219 10314 20269 403140227
K2R9 252335Z AUTO 13004KT 10SM CLR 29/22 A2991 RMK AO2 T02930220
K2R9 252315Z AUTO 13006KT 10SM CLR 30/22 A2990 RMK AO2 T03010220
K2R9 252255Z AUTO 13008KT 10SM SCT037 31/22 A2990 RMK AO2 T03070221
K2R9 252235Z AUTO 13006KT 10SM SCT035 31/22 A2991 RMK AO2 T03090222
K2R9 252215Z AUTO 08008KT 10SM SCT033 31/22 A2991 RMK AO2 T03090223
K2R9 252155Z AUTO 10009KT 10SM SCT033 31/22 A2991 RMK AO2 T03100221
K2R9 252135Z AUTO 14007KT 10SM SCT033 31/22 A2991 RMK AO2 T03110224
K2R9 252115Z AUTO 11008KT 10SM CLR 31/23 A2992 RMK AO2 T03060228
K2R9 252055Z AUTO 08006KT 10SM SCT028 31/23 A2992 RMK AO2 T03050229
K2R9 252035Z AUTO 13006KT 10SM SCT027 30/23 A2992 RMK AO2 T03030229
K2R9 252015Z AUTO 10007KT 10SM SCT025 31/23 A2992 RMK AO2 T03080232
K2R9 251955Z AUTO 13008KT 090V160 10SM SCT025 31/23 A2993 RMK AO2 T03060231
K2R9 251935Z AUTO 09007KT 10SM BKN023 30/23 A2994 RMK AO2 T03000231
K2R9 251915Z AUTO 07005KT 10SM BKN023 30/23 A2995 RMK AO2 T02960233
K2R9 251855Z AUTO 03005KT 10SM BKN021 29/23 A2995 RMK AO2 T02900231
K2R9 251830Z AUTO 07004KT 10SM OVC019 28/23 A2997 RMK AO2 T02790232
K2R9 251815Z AUTO 09003KT 10SM OVC017 28/23 A2998 RMK AO2 T02760231
K2R9 251755Z AUTO 11004KT 10SM OVC013 27/23 A2999 RMK AO2 T02660230 10270 20234
K2R9 251735Z AUTO 14004KT 10SM OVC011 26/23 A2999 RMK AO2 T02630230
K2R9 251715Z AUTO 11005KT 10SM OVC011 26/23 A2999 RMK AO2 T02600229
K2R9 251655Z AUTO 00000KT 10SM OVC009 25/23 A2999 RMK AO2 T02540230
K2R9 251635Z AUTO 00000KT 10SM OVC009 25/23 A3000 RMK AO2 T02510228
K2R9 251615Z AUTO 14005KT 10SM OVC007 25/23 A3000 RMK AO2 T02520230
K2R9 251555Z AUTO 10003KT 10SM OVC007 25/23 A3000 RMK AO2 T02450228
K2R9 251535Z AUTO 00000KT 10SM OVC007 25/23 A2999 RMK AO2 T02460227
K2R9 251515Z AUTO 00000KT 10SM OVC007 24/23 A2999 RMK AO2 T02450229
K2R9 251455Z AUTO 00000KT 10SM OVC007 24/23 A2999 RMK AO2 T02420228
K2R9 251435Z AUTO 16003KT 10SM OVC007 24/23 A2999 RMK AO2 T02420227
K2R9 251415Z AUTO 15004KT 10SM OVC007 24/22 A2998 RMK AO2 T02410225
K2R9 251355Z AUTO 20005KT 10SM OVC007 24/22 A2997 RMK AO2 T02390225
K2R9 251335Z AUTO 18003KT 10SM OVC007 24/22 A2997 RMK AO2 T02370224
K2R9 251315Z AUTO 00000KT 10SM OVC007 24/22 A2995 RMK AO2 T02360224
K2R9 251255Z AUTO 22004KT 10SM OVC007 24/22 A2995 RMK AO2 T02360224
K2R9 251235Z AUTO 22003KT 10SM OVC007 23/22 A2994 RMK AO2 T02350224
K2R9 251215Z AUTO 17004KT 10SM OVC005 24/23 A2993 RMK AO2 T02350226
K2R9 251155Z AUTO 20003KT 10SM OVC005 23/23 A2993 RMK AO2 T02340227 10242 20230
K2R9 251135Z AUTO 19006KT 10SM OVC005 23/23 A2992 RMK AO2 T02340228
K2R9 251115Z AUTO 00000KT 7SM BKN007 23/23 A2992 RMK AO2 T02320226
K2R9 251055Z AUTO 15003KT 10SM OVC007 23/23 A2992 RMK AO2 T02330226
K2R9 251035Z AUTO 17003KT 10SM OVC007 24/23 A2991 RMK AO2 T02360227
K2R9 251015Z AUTO 00000KT 10SM OVC007 24/23 A2991 RMK AO2 T02390230
K2R9 250955Z AUTO 00000KT 10SM OVC007 24/23 A2991 RMK AO2 T02410231
K2R9 250938Z AUTO 20004KT 10SM OVC007 24/23 A2992 RMK AO2 T02420232
K2R9 250915Z AUTO 21005KT 10SM OVC007 24/23 A2992 RMK AO2 T02410232
K2R9 250855Z AUTO 20005KT 10SM OVC005 24/23 A2992 RMK AO2 T02390233
K2R9 250835Z AUTO 20004KT 10SM OVC005 24/23 A2992 RMK AO2 T02390234
K2R9 250815Z AUTO 18005KT 10SM OVC003 24/24 A2992 RMK AO2 T02400235
K2R9 250755Z AUTO 17004KT 5SM BR OVC003 24/23 A2992 RMK AO2 T02390234
K2R9 250735Z AUTO 18004KT 4SM BR OVC003 24/23 A2992 RMK AO2 T02370232
K2R9 250715Z AUTO 18004KT 1 3/4SM BR OVC003 24/23 A2992 RMK AO2 T02360231
K2R9 250655Z AUTO 16004KT 1 1/4SM BR OVC003 24/23 A2992 RMK AO2 T02360231
K2R9 250635Z AUTO 14005KT 1/2SM FG OVC003 24/23 A2992 RMK AO2 T02370232